createdAt,value
2017-05-26T19:24:38.689Z,76.9
2017-05-26T19:25:38.998Z,77.96
2017-05-26T19:26:38.997Z,77.67
2017-05-26T19:27:38.671Z,78.83
2017-05-26T19:28:38.986Z,78.02
2017-05-26T19:29:38.975Z,77.15
2017-05-26T19:30:38.654Z,77.34
2017-05-26T19:31:38.970Z,77.83
2017-05-26T19:32:38.959Z,77.63
2017-05-26T19:33:38.700Z,79.56
2017-05-26T19:34:38.634Z,79.56
2017-05-26T19:35:38.624Z,78.69
2017-05-26T19:36:38.617Z,81.3
2017-05-26T19:37:38.684Z,80.82
2017-05-26T19:38:38.923Z,80.87
2017-05-26T19:39:38.915Z,80.78
2017-05-26T19:40:38.908Z,82.13
2017-05-26T19:41:38.641Z,80.97
2017-05-26T19:42:38.588Z,81.16
2017-05-26T19:43:38.898Z,83.58
2017-05-26T19:44:38.892Z,83.96
2017-05-26T19:45:38.882Z,82.51
2017-05-26T19:46:38.875Z,83.44
2017-05-26T19:47:38.871Z,83.92
2017-05-26T19:48:38.753Z,83.25
2017-05-26T19:49:38.542Z,82.96
2017-05-26T19:50:38.536Z,82.86
2017-05-26T19:51:38.579Z,82.96
2017-05-26T19:52:38.848Z,84.69
2017-05-26T19:53:38.842Z,85.27
2017-05-26T19:54:38.510Z,86.72
2017-05-26T19:55:38.818Z,86.62
2017-05-26T19:56:38.820Z,85.46
2017-05-26T19:57:38.813Z,84.89
2017-05-26T19:58:38.855Z,86.91
2017-05-26T19:59:38.793Z,85.81
2017-05-26T20:00:38.792Z,86.96
2017-05-26T20:01:38.835Z,87.35
2017-05-26T20:02:38.779Z,87.83
2017-05-26T20:03:38.773Z,88.31
2017-05-26T20:04:38.766Z,88.31
2017-05-26T20:05:38.443Z,89.76
2017-05-26T20:06:56.790Z,88.31
2017-05-26T20:07:38.743Z,88.31
2017-05-26T20:08:38.742Z,90.82
2017-05-26T20:09:38.416Z,90.82
2017-05-26T20:10:38.408Z,92.22
2017-05-26T20:11:38.718Z,91.45
2017-05-26T20:12:38.394Z,91.55
2017-05-26T20:13:38.706Z,93.28
2017-05-26T20:14:38.381Z,91.83
2017-05-26T20:15:38.375Z,92.03
2017-05-26T20:16:38.367Z,93.38
2017-05-26T20:17:38.730Z,93.76
2017-05-26T20:18:38.673Z,92.99
2017-05-26T20:19:38.350Z,92.22
2017-05-26T20:20:38.670Z,93.28
2017-05-26T20:21:38.342Z,93.86
2017-05-26T20:22:38.690Z,95.21
2017-05-26T20:23:38.327Z,94.73
2017-05-26T20:24:38.634Z,93.96
2017-05-26T20:25:38.306Z,93.81
2017-05-26T20:26:38.615Z,94.68
2017-05-26T20:27:38.607Z,94.1
2017-05-26T20:28:38.288Z,95.07
2017-05-26T20:29:38.595Z,95.64
2017-05-26T20:30:38.587Z,96.8
2017-05-26T20:31:38.580Z,96.22
2017-05-26T20:32:38.311Z,96.42
2017-05-26T20:33:38.251Z,95.36
2017-05-26T20:34:38.249Z,95.94
2017-05-26T20:35:38.556Z,96.17
2017-05-26T20:36:38.549Z,96.32
2017-05-26T20:37:38.224Z,97.09
2017-05-26T20:38:38.530Z,97.52
2017-05-26T20:39:38.209Z,97.72
2017-05-26T20:40:38.513Z,98.58
2017-05-26T20:41:38.512Z,97.81
2017-05-26T20:42:38.188Z,98
2017-05-26T20:43:38.183Z,98
2017-05-26T20:44:38.490Z,98.29
2017-05-26T20:45:38.478Z,97.81
2017-05-26T20:46:38.474Z,98.77
2017-05-26T20:47:38.467Z,97.81
2017-05-26T20:48:38.461Z,98.58
2017-05-26T20:49:38.450Z,98.97
2017-05-26T20:50:38.438Z,99.26
2017-05-26T20:51:38.436Z,99.16
2017-05-26T20:52:38.429Z,98.97
2017-05-26T20:53:38.435Z,98.92
2017-05-26T20:54:38.418Z,99.49
2017-05-26T20:55:38.092Z,99.44
2017-05-26T20:56:38.085Z,99.49
2017-05-26T20:57:38.403Z,99.69
2017-05-26T20:58:38.072Z,99.88
2017-05-26T20:59:38.376Z,99.4
2017-05-26T21:00:38.055Z,99.99
2017-05-26T21:01:38.358Z,99.99
2017-05-26T21:02:38.356Z,99.99
2017-05-26T21:03:38.343Z,99.99
2017-05-26T21:04:38.340Z,99.99
2017-05-26T21:05:38.016Z,99.99
2017-05-26T21:06:38.011Z,99.99
2017-05-26T21:07:38.328Z,99.99
2017-05-26T21:08:37.993Z,99.99
2017-05-26T21:09:38.004Z,99.99
2017-05-26T21:10:37.975Z,99.99
2017-05-26T21:11:37.971Z,99.99
2017-05-26T21:12:38.277Z,99.99
2017-05-26T21:13:38.011Z,99.99
2017-05-26T21:14:37.951Z,99.99
2017-05-26T21:15:38.256Z,99.99
2017-05-26T21:16:37.930Z,99.99
2017-05-26T21:17:38.243Z,99.99
2017-05-26T21:18:37.914Z,99.99
2017-05-26T21:19:37.908Z,99.99
2017-05-26T21:20:38.218Z,99.99
2017-05-26T21:21:38.206Z,99.99
2017-05-26T21:22:37.881Z,99.99
2017-05-26T21:23:38.189Z,99.99
2017-05-26T21:24:37.867Z,99.99
2017-05-26T21:25:38.173Z,99.99
2017-05-26T21:26:38.173Z,99.99
2017-05-26T21:27:37.870Z,99.99
2017-05-26T21:28:37.843Z,99.99
2017-05-26T21:29:38.208Z,99.99
2017-05-26T21:30:37.826Z,99.99
2017-05-26T21:31:38.128Z,99.99
2017-05-26T21:32:38.119Z,99.99
2017-05-26T21:33:38.189Z,99.99
2017-05-26T21:34:37.787Z,99.99
2017-05-26T21:35:37.788Z,99.99
2017-05-26T21:36:37.774Z,99.99
2017-05-26T21:37:37.779Z,99.99
2017-05-26T21:38:37.765Z,99.99
2017-05-26T21:39:37.749Z,99.99
2017-05-26T21:40:38.054Z,99.99
2017-05-26T21:41:38.100Z,99.99
2017-05-26T21:42:38.037Z,99.99
2017-05-26T21:43:38.040Z,99.99
2017-05-26T21:44:38.024Z,99.99
2017-05-26T21:45:37.702Z,99.99
2017-05-26T21:46:38.001Z,99.99
2017-05-26T21:47:37.698Z,99.99
2017-05-26T21:48:37.679Z,99.99
2017-05-26T21:49:37.983Z,99.99
2017-05-26T21:50:37.658Z,99.99
2017-05-26T21:51:37.676Z,99.99
2017-05-26T21:52:37.644Z,99.99
2017-05-26T21:53:37.634Z,99.99
2017-05-26T21:54:37.938Z,99.99
2017-05-26T21:55:37.616Z,99.99
2017-05-26T21:56:37.609Z,99.99
2017-05-26T21:57:37.916Z,99.99
2017-05-26T21:58:37.909Z,99.99
2017-05-26T21:59:37.898Z,99.99
2017-05-26T22:00:37.578Z,99.99
2017-05-26T22:01:37.882Z,99.99
2017-05-26T22:02:37.881Z,99.99
2017-05-26T22:03:37.867Z,99.99
2017-05-26T22:04:37.859Z,99.99
2017-05-26T22:05:37.534Z,99.99
2017-05-26T22:06:37.849Z,99.99
2017-05-26T22:07:37.728Z,99.99
2017-05-26T22:08:37.830Z,99.99
2017-05-26T22:09:37.837Z,99.99
2017-05-26T22:10:37.806Z,99.99
2017-05-26T22:11:37.486Z,99.99
2017-05-26T22:12:37.791Z,99.99
2017-05-26T22:13:37.473Z,99.99
2017-05-26T22:14:37.460Z,99.99
2017-05-26T22:15:37.448Z,99.99
2017-05-26T22:16:37.447Z,99.99
2017-05-26T22:17:37.751Z,99.99
2017-05-26T22:18:37.739Z,99.99
2017-05-26T22:19:37.730Z,99.99
2017-05-26T22:20:37.406Z,99.99
2017-05-26T22:21:37.398Z,99.99
2017-05-26T22:22:37.704Z,99.99
2017-05-26T22:23:37.389Z,99.99
2017-05-26T22:24:37.379Z,99.99
2017-05-26T22:25:37.683Z,99.99
2017-05-26T22:26:37.671Z,99.99
2017-05-26T22:27:37.663Z,99.99
2017-05-26T22:28:37.344Z,99.99
2017-05-26T22:29:37.330Z,99.99
2017-05-26T22:30:37.748Z,99.99
2017-05-26T22:31:37.631Z,99.99
2017-05-26T22:32:37.623Z,99.99
2017-05-26T22:33:37.690Z,99.99
2017-05-26T22:34:37.609Z,99.99
2017-05-26T22:35:37.289Z,99.99
2017-05-26T22:36:37.596Z,99.99
2017-05-26T22:37:37.626Z,99.99
2017-05-26T22:38:37.572Z,99.99
2017-05-26T22:39:37.252Z,99.99
2017-05-26T22:40:37.554Z,99.99
2017-05-26T22:41:37.541Z,99.99
2017-05-26T22:42:37.536Z,99.99
2017-05-26T22:43:37.526Z,99.99
2017-05-26T22:44:37.519Z,99.99
2017-05-26T22:45:37.508Z,99.99
2017-05-26T22:46:37.502Z,99.99
2017-05-26T22:47:37.492Z,99.99
2017-05-26T22:48:37.483Z,99.99
2017-05-26T22:49:37.478Z,99.99
2017-05-26T22:50:37.707Z,99.99
2017-05-26T22:51:37.456Z,99.99
2017-05-26T22:52:37.133Z,99.99
2017-05-26T22:53:37.156Z,99.99
2017-05-26T22:54:37.546Z,99.99
2017-05-26T22:55:37.423Z,99.99
2017-05-26T22:56:37.418Z,99.99
2017-05-26T22:57:37.095Z,99.99
2017-05-26T22:58:37.395Z,99.99
2017-05-26T22:59:37.385Z,99.99
2017-05-26T23:00:37.063Z,99.99
2017-05-26T23:01:37.364Z,99.99
2017-05-26T23:02:37.358Z,99.99
2017-05-26T23:03:37.349Z,99.99
2017-05-26T23:04:37.345Z,99.99
2017-05-26T23:05:37.334Z,99.99
2017-05-26T23:06:37.325Z,99.99
2017-05-26T23:07:37.314Z,99.99
2017-05-26T23:08:37.304Z,99.99
2017-05-26T23:09:36.983Z,99.99
2017-05-26T23:10:36.970Z,99.99
2017-05-26T23:11:36.962Z,99.99
2017-05-26T23:12:37.276Z,99.99
2017-05-26T23:13:37.262Z,99.99
2017-05-26T23:14:37.300Z,99.99
2017-05-26T23:15:37.247Z,99.99
2017-05-26T23:16:37.237Z,99.99
2017-05-26T23:17:37.228Z,99.99
2017-05-26T23:18:36.898Z,99.99
2017-05-26T23:19:37.204Z,99.99
2017-05-26T23:20:37.233Z,99.99
2017-05-26T23:21:37.189Z,99.99
2017-05-26T23:22:37.176Z,99.99
2017-05-26T23:23:36.854Z,99.99
2017-05-26T23:24:36.842Z,99.99
2017-05-26T23:25:36.834Z,99.99
2017-05-26T23:26:37.139Z,99.99
2017-05-26T23:27:36.819Z,99.99
2017-05-26T23:28:37.122Z,99.99
2017-05-26T23:29:37.167Z,99.99
2017-05-26T23:30:37.111Z,99.99
2017-05-26T23:31:36.782Z,99.99
2017-05-26T23:32:37.103Z,99.99
2017-05-26T23:33:37.074Z,99.99
2017-05-26T23:34:37.067Z,99.99
2017-05-26T23:35:37.060Z,99.99
2017-05-26T23:36:37.050Z,99.99
2017-05-26T23:37:36.725Z,99.99
2017-05-26T23:38:37.031Z,99.99
2017-05-26T23:39:37.035Z,99.99
2017-05-26T23:40:36.701Z,99.99
2017-05-26T23:41:36.688Z,99.99
2017-05-26T23:42:36.680Z,99.99
2017-05-26T23:43:36.672Z,99.99
2017-05-26T23:44:36.661Z,99.99
2017-05-26T23:45:36.653Z,99.99
2017-05-26T23:46:36.642Z,99.99
2017-05-26T23:47:36.633Z,99.99
2017-05-26T23:48:36.937Z,99.99
2017-05-26T23:49:36.616Z,99.99
2017-05-26T23:50:36.608Z,99.99
2017-05-26T23:51:36.597Z,99.99
2017-05-26T23:52:36.597Z,99.99
2017-05-26T23:53:36.576Z,99.99
2017-05-26T23:54:36.881Z,99.99
2017-05-26T23:55:36.873Z,99.99
2017-05-26T23:56:36.865Z,99.99
2017-05-26T23:57:36.857Z,99.99
2017-05-26T23:58:36.532Z,99.99
2017-05-26T23:59:36.837Z,99.99
